Time;durP1;ratioP1;P1;durP2;ratioP2;P2;SDS_P1;SDS_P2;PMS_P1;PMS_P2;Temp;Humidity;BMP_temperature;BMP_pressure;BME280_temperature;BME280_humidity;BME280_pressure;Samples;Min_cycle;Max_cycle;Signal;HPM_P1;HPM_P2
2021/12/22 00:01:00;;;;;;;22.20;14.48;;;0.70;76.30;;;;;;5057804;28;20467;-67
2021/12/22 00:03:26;;;;;;;26.55;14.25;;;0.70;76.30;;;;;;5059182;28;20553;-66
2021/12/22 00:05:53;;;;;;;26.35;14.57;;;0.70;76.20;;;;;;5054257;28;20040;-67
2021/12/22 00:08:18;;;;;;;24.23;13.73;;;0.70;76.20;;;;;;5059979;28;20114;-67
2021/12/22 00:10:46;;;;;;;24.25;14.02;;;0.70;76.20;;;;;;5053540;28;20213;-67
2021/12/22 00:13:12;;;;;;;22.95;14.05;;;0.70;76.20;;;;;;5057721;28;20041;-67
2021/12/22 00:15:38;;;;;;;24.33;14.55;;;0.70;76.30;;;;;;5057555;28;20043;-66
2021/12/22 00:18:05;;;;;;;22.83;14.18;;;0.70;76.20;;;;;;5052877;28;20044;-67
2021/12/22 00:20:31;;;;;;;23.88;15.02;;;0.80;76.20;;;;;;5050928;28;20028;-66
2021/12/22 00:22:57;;;;;;;23.30;15.00;;;0.80;76.10;;;;;;5053102;28;20044;-66
2021/12/22 00:25:25;;;;;;;23.55;13.82;;;0.80;76.00;;;;;;5050902;28;20032;-67
2021/12/22 00:27:52;;;;;;;24.70;14.45;;;0.70;75.90;;;;;;5053073;28;20072;-66
2021/12/22 00:30:18;;;;;;;24.67;13.93;;;0.70;75.80;;;;;;5054594;28;20028;-66
2021/12/22 00:32:51;;;;;;;22.25;14.23;;;0.70;75.80;;;;;;5054513;28;20140;-66
2021/12/22 00:35:20;;;;;;;22.17;13.30;;;0.70;75.80;;;;;;5053680;28;20147;-67
2021/12/22 00:37:46;;;;;;;25.67;14.82;;;0.60;75.80;;;;;;5053965;28;20033;-66
2021/12/22 00:40:12;;;;;;;25.08;14.73;;;0.60;75.80;;;;;;5051284;28;20150;-66
2021/12/22 00:42:38;;;;;;;26.00;14.85;;;0.60;75.90;;;;;;5050356;28;20129;-66
2021/12/22 00:45:05;;;;;;;25.20;15.10;;;0.60;76.00;;;;;;5051808;28;20516;-66
2021/12/22 00:47:31;;;;;;;23.27;14.35;;;0.60;76.00;;;;;;5053920;28;20120;-66
2021/12/22 00:49:59;;;;;;;25.17;15.52;;;0.60;76.00;;;;;;5054514;28;20033;-66
2021/12/22 00:52:25;;;;;;;24.90;14.25;;;0.60;76.10;;;;;;5050965;28;20504;-66
2021/12/22 00:54:51;;;;;;;22.50;13.98;;;0.60;76.10;;;;;;5054885;28;20042;-66
2021/12/22 00:57:17;;;;;;;22.75;13.27;;;0.60;76.00;;;;;;5051364;28;20036;-66
2021/12/22 00:59:45;;;;;;;23.15;14.02;;;0.60;76.00;;;;;;5056267;28;20047;-67
2021/12/22 01:02:14;;;;;;;23.33;13.85;;;0.60;75.90;;;;;;5054144;28;20565;-67
2021/12/22 01:04:40;;;;;;;23.67;13.82;;;0.50;75.80;;;;;;5051229;28;20559;-66
2021/12/22 01:07:06;;;;;;;22.40;13.48;;;0.50;75.90;;;;;;5052847;28;20032;-66
2021/12/22 01:09:32;;;;;;;21.95;14.05;;;0.50;75.90;;;;;;5051397;28;20701;-66
2021/12/22 01:11:58;;;;;;;21.83;13.68;;;0.50;76.00;;;;;;5051118;28;20037;-66
2021/12/22 01:14:23;;;;;;;22.33;13.98;;;0.50;76.00;;;;;;5051251;28;20491;-66
2021/12/22 01:16:52;;;;;;;24.27;14.02;;;0.50;75.90;;;;;;5049572;28;20041;-66
2021/12/22 01:19:26;;;;;;;23.17;13.68;;;0.50;75.90;;;;;;5051918;28;20032;-66
2021/12/22 01:22:01;;;;;;;23.95;13.80;;;0.50;75.90;;;;;;5050729;28;20086;-66
2021/12/22 01:24:34;;;;;;;22.08;13.32;;;0.50;75.90;;;;;;5054088;28;20043;-66
2021/12/22 01:27:09;;;;;;;21.75;12.95;;;0.40;75.80;;;;;;5056648;28;20043;-66
2021/12/22 01:29:37;;;;;;;21.95;13.52;;;0.40;75.80;;;;;;5056060;28;20043;-66
2021/12/22 01:32:03;;;;;;;20.98;13.32;;;0.30;75.60;;;;;;5054083;28;20041;-66
2021/12/22 01:34:30;;;;;;;21.95;13.18;;;0.30;75.70;;;;;;5050952;28;21286;-66
2021/12/22 01:36:56;;;;;;;23.23;13.90;;;0.30;75.90;;;;;;5054224;28;20029;-66
2021/12/22 01:39:22;;;;;;;21.45;12.82;;;0.20;76.00;;;;;;5054834;28;20123;-66
2021/12/22 01:41:48;;;;;;;21.63;13.13;;;0.20;76.00;;;;;;5053248;28;20136;-66
2021/12/22 01:44:28;;;;;;;22.27;13.02;;;0.20;75.90;;;;;;5050122;28;20496;-66
2021/12/22 01:49:50;;;;;;;22.27;13.00;;;0.20;76.20;;;;;;5055625;28;20028;-67
2021/12/22 01:52:20;;;;;;;18.98;12.05;;;0.10;75.90;;;;;;5055058;28;20028;-66
2021/12/22 01:55:06;;;;;;;22.10;13.43;;;0.10;76.00;;;;;;5052739;28;20041;-66
2021/12/22 01:57:42;;;;;;;23.13;13.60;;;0.10;75.90;;;;;;5053405;28;20394;-66
2021/12/22 02:00:08;;;;;;;23.70;12.68;;;0.00;76.00;;;;;;5051925;28;20063;-66
2021/12/22 02:02:34;;;;;;;21.88;13.57;;;0.00;76.20;;;;;;5054126;28;20131;-66
2021/12/22 02:05:00;;;;;;;22.48;13.18;;;0.00;76.30;;;;;;5050426;28;20115;-66
2021/12/22 02:07:25;;;;;;;20.70;13.27;;;0.00;76.20;;;;;;5052573;28;20052;-67
2021/12/22 02:10:24;;;;;;;19.95;12.93;;;-0.10;76.20;;;;;;5053372;28;20115;-66
2021/12/22 02:12:52;;;;;;;21.15;13.05;;;-0.10;76.20;;;;;;5048001;28;20036;-66
2021/12/22 02:15:18;;;;;;;22.08;12.82;;;-0.10;76.20;;;;;;5052838;28;20028;-66
2021/12/22 02:17:44;;;;;;;22.00;12.57;;;-0.10;76.20;;;;;;5052771;28;21255;-65
2021/12/22 02:20:11;;;;;;;22.15;13.38;;;-0.10;76.10;;;;;;5053121;28;20036;-66
2021/12/22 02:22:39;;;;;;;21.90;13.18;;;-0.20;76.00;;;;;;5052142;28;20036;-66
2021/12/22 02:25:13;;;;;;;20.95;13.07;;;-0.20;76.00;;;;;;5056242;28;20029;-66
2021/12/22 02:27:50;;;;;;;25.83;14.25;;;-0.20;76.20;;;;;;5053787;28;21562;-66
2021/12/22 02:30:23;;;;;;;23.52;13.38;;;-0.30;76.00;;;;;;5057004;28;20028;-66
2021/12/22 02:35:38;;;;;;;21.52;13.10;;;-0.40;76.20;;;;;;5055383;28;20033;-66
2021/12/22 02:38:07;;;;;;;23.85;14.43;;;-0.40;76.40;;;;;;5057285;28;20037;-66
2021/12/22 02:40:32;;;;;;;22.60;14.00;;;-0.40;76.40;;;;;;5055377;28;20423;-66
2021/12/22 02:43:05;;;;;;;21.58;13.43;;;-0.40;76.40;;;;;;5056443;28;20040;-66
2021/12/22 02:45:32;;;;;;;21.50;13.45;;;-0.40;76.40;;;;;;5053854;28;20033;-66
2021/12/22 02:47:57;;;;;;;22.10;12.90;;;-0.40;76.60;;;;;;5058073;28;20134;-66
2021/12/22 02:50:23;;;;;;;23.88;13.82;;;-0.40;76.70;;;;;;5058608;28;20657;-66
2021/12/22 02:53:02;;;;;;;22.70;13.85;;;-0.40;76.70;;;;;;5055057;28;20056;-66
2021/12/22 02:55:32;;;;;;;20.80;13.65;;;-0.40;76.70;;;;;;5056727;28;20079;-66
2021/12/22 02:58:02;;;;;;;22.75;13.70;;;-0.30;76.70;;;;;;5055691;28;20127;-66
2021/12/22 03:00:48;;;;;;;20.25;12.88;;;-0.30;76.70;;;;;;5053328;28;20442;-64
2021/12/22 03:05:53;;;;;;;23.95;13.63;;;-0.30;76.60;;;;;;5056229;28;20028;-66
2021/12/22 03:08:18;;;;;;;21.10;12.52;;;-0.30;76.60;;;;;;5051900;28;20036;-65
2021/12/22 03:10:44;;;;;;;23.10;13.60;;;-0.30;76.60;;;;;;5052994;28;20044;-66
2021/12/22 03:13:10;;;;;;;19.00;12.52;;;-0.20;76.70;;;;;;5055355;28;20395;-66
2021/12/22 03:15:35;;;;;;;21.33;13.18;;;-0.20;76.60;;;;;;5055426;28;20040;-66
2021/12/22 03:18:03;;;;;;;21.80;13.82;;;-0.20;76.40;;;;;;5055741;28;20037;-67
2021/12/22 03:20:29;;;;;;;20.40;13.45;;;-0.10;76.40;;;;;;5055127;28;20047;-66
2021/12/22 03:22:55;;;;;;;21.27;13.20;;;-0.10;76.30;;;;;;5054516;28;20037;-67
2021/12/22 03:25:26;;;;;;;22.05;13.35;;;-0.10;76.20;;;;;;5056684;28;20045;-67
2021/12/22 03:27:53;;;;;;;23.42;14.10;;;-0.10;76.00;;;;;;5055059;28;20110;-67
2021/12/22 03:30:23;;;;;;;22.00;13.75;;;-0.20;76.00;;;;;;5055177;28;20033;-67
2021/12/22 03:32:49;;;;;;;20.70;12.45;;;-0.10;75.90;;;;;;5056195;28;20116;-67
2021/12/22 03:35:20;;;;;;;25.33;14.07;;;-0.10;75.90;;;;;;5056733;28;20119;-67
2021/12/22 03:37:49;;;;;;;20.77;12.68;;;-0.20;75.90;;;;;;5057448;28;20116;-66
2021/12/22 03:40:16;;;;;;;21.25;13.05;;;-0.20;75.80;;;;;;5058367;28;20040;-66
2021/12/22 03:42:42;;;;;;;22.50;13.60;;;-0.20;75.80;;;;;;5057952;28;20127;-66
2021/12/22 03:45:08;;;;;;;21.73;13.18;;;-0.20;75.80;;;;;;5057759;28;20120;-66
2021/12/22 03:47:34;;;;;;;20.88;13.32;;;-0.20;75.80;;;;;;5055714;28;20036;-66
2021/12/22 03:50:00;;;;;;;22.52;13.80;;;-0.10;75.70;;;;;;5059190;28;20028;-66
2021/12/22 03:52:26;;;;;;;21.02;13.07;;;-0.10;75.70;;;;;;5054949;28;20041;-66
2021/12/22 03:54:57;;;;;;;21.75;13.05;;;-0.20;75.50;;;;;;5052493;28;20024;-66
2021/12/22 03:57:27;;;;;;;20.75;13.32;;;-0.20;75.60;;;;;;5054849;28;20588;-66
2021/12/22 03:59:53;;;;;;;21.75;13.35;;;-0.20;75.50;;;;;;5055899;28;20060;-66
2021/12/22 04:02:21;;;;;;;24.15;14.32;;;-0.20;75.50;;;;;;5053068;28;20058;-66
2021/12/22 04:04:49;;;;;;;23.15;14.18;;;-0.10;75.60;;;;;;5052883;28;20120;-66
2021/12/22 04:07:15;;;;;;;23.77;14.65;;;-0.20;75.70;;;;;;5054664;28;20032;-66
2021/12/22 04:09:41;;;;;;;24.00;14.57;;;-0.20;75.60;;;;;;5054290;28;20087;-66
2021/12/22 04:12:07;;;;;;;24.90;14.35;;;-0.20;75.60;;;;;;5052071;28;20458;-66
2021/12/22 04:14:33;;;;;;;22.60;13.43;;;-0.20;75.40;;;;;;5052824;28;20033;-66
2021/12/22 04:16:59;;;;;;;23.88;14.23;;;-0.20;75.30;;;;;;5057527;28;20067;-66
2021/12/22 04:19:25;;;;;;;24.55;14.18;;;-0.20;75.30;;;;;;5053319;28;20060;-66
2021/12/22 04:21:51;;;;;;;22.15;13.02;;;-0.20;75.40;;;;;;5053767;28;20032;-66
2021/12/22 04:24:17;;;;;;;23.35;14.45;;;-0.20;75.50;;;;;;5058155;28;20032;-67
2021/12/22 04:26:43;;;;;;;24.23;14.07;;;-0.20;75.30;;;;;;5054144;28;20037;-66
2021/12/22 04:29:11;;;;;;;25.05;14.38;;;-0.20;75.30;;;;;;5056385;28;20514;-66
2021/12/22 04:31:37;;;;;;;24.95;15.02;;;-0.20;75.30;;;;;;5052204;28;20115;-66
2021/12/22 04:34:07;;;;;;;25.60;14.55;;;-0.30;75.40;;;;;;5053741;28;20029;-66
2021/12/22 04:36:33;;;;;;;23.38;13.82;;;-0.30;75.40;;;;;;5055473;28;20032;-66
2021/12/22 04:38:59;;;;;;;23.10;14.05;;;-0.30;75.40;;;;;;5054743;28;20107;-66
2021/12/22 04:41:26;;;;;;;26.17;14.52;;;-0.30;75.30;;;;;;5051759;28;20044;-66
2021/12/22 04:43:53;;;;;;;24.75;14.43;;;-0.30;75.30;;;;;;5052286;28;20041;-66
2021/12/22 04:46:20;;;;;;;26.67;14.73;;;-0.30;75.30;;;;;;5052260;28;20032;-66
2021/12/22 04:48:46;;;;;;;25.63;15.25;;;-0.30;76.10;;;;;;5050084;28;20622;-66
2021/12/22 04:51:24;;;;;;;25.15;14.73;;;-0.40;75.20;;;;;;5056040;28;20045;-66
2021/12/22 04:54:03;;;;;;;26.77;14.75;;;-0.40;75.20;;;;;;5056610;28;20492;-66
2021/12/22 04:56:28;;;;;;;23.50;14.40;;;-0.50;75.30;;;;;;5052278;28;20060;-67
2021/12/22 04:58:54;;;;;;;25.92;15.00;;;-0.40;75.50;;;;;;5050539;28;20128;-66
2021/12/22 05:01:20;;;;;;;26.48;15.50;;;-0.50;75.50;;;;;;5053897;28;20115;-66
2021/12/22 05:03:45;;;;;;;27.75;15.20;;;-0.50;75.50;;;;;;5052120;28;20040;-66
2021/12/22 05:06:11;;;;;;;25.65;15.40;;;-0.50;75.60;;;;;;5050425;28;20044;-66
2021/12/22 05:08:36;;;;;;;26.88;15.60;;;-0.60;75.70;;;;;;5054226;28;20079;-66
2021/12/22 05:11:03;;;;;;;28.40;16.38;;;-0.60;75.70;;;;;;5051851;28;20063;-64
2021/12/22 05:13:29;;;;;;;24.25;14.43;;;-0.60;75.70;;;;;;5054904;28;20721;-66
2021/12/22 05:15:55;;;;;;;25.63;14.90;;;-0.60;75.80;;;;;;5052434;28;20044;-66
2021/12/22 05:18:24;;;;;;;27.27;15.45;;;-0.60;75.90;;;;;;5049646;28;20136;-66
2021/12/22 05:20:50;;;;;;;24.05;14.38;;;-0.60;75.90;;;;;;5053742;28;20048;-66
2021/12/22 05:23:17;;;;;;;27.55;15.23;;;-0.50;75.90;;;;;;5054830;28;20045;-66
2021/12/22 05:25:43;;;;;;;27.17;15.65;;;-0.50;75.80;;;;;;5055048;28;20041;-66
2021/12/22 05:28:09;;;;;;;27.65;14.77;;;-0.50;75.70;;;;;;5053075;28;20052;-66
2021/12/22 05:30:34;;;;;;;27.60;15.80;;;-0.40;75.70;;;;;;5053039;28;20032;-67
2021/12/22 05:33:00;;;;;;;25.90;14.60;;;-0.40;75.70;;;;;;5056731;28;20037;-66
2021/12/22 05:35:26;;;;;;;29.98;16.38;;;-0.40;75.70;;;;;;5051259;28;20048;-66
2021/12/22 05:37:52;;;;;;;31.65;17.52;;;-0.40;75.70;;;;;;5052992;28;20080;-67
2021/12/22 05:40:18;;;;;;;34.08;19.33;;;-0.40;75.60;;;;;;5056667;28;20585;-66
2021/12/22 05:42:44;;;;;;;33.22;17.90;;;-0.40;75.90;;;;;;5052538;28;20044;-66
2021/12/22 05:45:09;;;;;;;31.02;17.00;;;-0.40;75.50;;;;;;5053614;28;20035;-66
2021/12/22 05:47:35;;;;;;;28.45;15.63;;;-0.40;75.50;;;;;;5054600;28;20071;-66
2021/12/22 05:50:03;;;;;;;29.90;16.52;;;-0.40;75.60;;;;;;5052569;28;20239;-66
2021/12/22 05:52:29;;;;;;;27.73;15.63;;;-0.40;75.70;;;;;;5057870;28;20133;-66
2021/12/22 05:54:55;;;;;;;32.38;16.77;;;-0.40;75.70;;;;;;5055969;28;20135;-66
2021/12/22 05:57:21;;;;;;;29.27;15.60;;;-0.40;75.80;;;;;;5050702;28;22739;-66
2021/12/22 05:59:46;;;;;;;29.48;16.70;;;-0.30;75.90;;;;;;5056511;28;20029;-66
2021/12/22 06:02:12;;;;;;;28.13;16.20;;;-0.30;75.80;;;;;;5058733;28;20549;-66
2021/12/22 06:04:38;;;;;;;136.80;65.93;;;-0.30;75.80;;;;;;5055641;28;20586;-67
2021/12/22 06:07:03;;;;;;;44.70;25.63;;;-0.30;76.20;;;;;;5054839;28;20895;-67
2021/12/22 06:09:29;;;;;;;36.65;20.63;;;-0.30;75.50;;;;;;5054528;28;20060;-67
2021/12/22 06:11:55;;;;;;;32.60;19.60;;;-0.30;75.50;;;;;;5055495;28;20037;-67
2021/12/22 06:14:20;;;;;;;33.33;19.40;;;-0.30;75.40;;;;;;5058153;28;20029;-67
2021/12/22 06:16:46;;;;;;;32.80;18.35;;;-0.40;75.20;;;;;;5054763;28;20037;-67
2021/12/22 06:19:13;;;;;;;26.13;14.77;;;-0.40;75.30;;;;;;5056499;28;20459;-66
2021/12/22 06:21:39;;;;;;;31.73;17.75;;;-0.40;75.30;;;;;;5054800;28;20032;-66
2021/12/22 06:24:05;;;;;;;62.33;41.13;;;-0.40;75.50;;;;;;5059192;28;20032;-67
2021/12/22 06:26:31;;;;;;;30.27;17.60;;;-0.40;75.50;;;;;;5057113;28;20029;-66
2021/12/22 06:28:56;;;;;;;29.15;16.35;;;-0.40;75.50;;;;;;5056973;28;20435;-67
2021/12/22 06:31:22;;;;;;;27.42;14.93;;;-0.40;75.50;;;;;;5055503;28;20729;-67
2021/12/22 06:33:48;;;;;;;26.17;14.68;;;-0.40;75.50;;;;;;5057607;28;20029;-67
2021/12/22 06:36:13;;;;;;;31.63;15.27;;;-0.40;75.50;;;;;;5054752;28;20039;-66
2021/12/22 06:38:39;;;;;;;25.40;14.98;;;-0.40;75.50;;;;;;5056291;28;20401;-66
2021/12/22 06:41:06;;;;;;;27.25;15.07;;;-0.40;75.50;;;;;;5054980;28;20032;-66
2021/12/22 06:43:32;;;;;;;24.83;15.20;;;-0.40;75.40;;;;;;5058210;28;20044;-64
2021/12/22 06:45:58;;;;;;;27.98;15.20;;;-0.30;75.50;;;;;;5054819;28;20051;-65
2021/12/22 06:48:23;;;;;;;24.23;14.55;;;-0.30;75.30;;;;;;5054194;28;20040;-66
2021/12/22 06:50:49;;;;;;;28.63;14.90;;;-0.30;75.30;;;;;;5053734;28;20439;-66
2021/12/22 06:53:14;;;;;;;27.83;15.43;;;-0.30;75.20;;;;;;5055697;28;20076;-67
2021/12/22 06:55:40;;;;;;;26.85;15.88;;;-0.30;75.00;;;;;;5053568;28;20491;-66
2021/12/22 06:58:06;;;;;;;29.90;15.60;;;-0.40;74.80;;;;;;5051810;28;20029;-66
2021/12/22 07:00:32;;;;;;;25.33;14.23;;;-0.40;74.60;;;;;;5052326;28;20049;-66
2021/12/22 07:02:58;;;;;;;26.83;14.98;;;-0.40;74.60;;;;;;5053472;28;20101;-66
2021/12/22 07:05:24;;;;;;;23.67;14.30;;;-0.50;74.60;;;;;;5047712;28;20036;-66
2021/12/22 07:07:50;;;;;;;23.60;14.35;;;-0.60;74.60;;;;;;5036571;28;20045;-66
2021/12/22 07:10:16;;;;;;;25.80;14.95;;;-0.60;74.70;;;;;;5039911;28;20600;-65
2021/12/22 07:12:48;;;;;;;26.48;15.07;;;-0.70;74.60;;;;;;5040927;28;20039;-66
2021/12/22 07:15:16;;;;;;;23.98;14.07;;;-0.80;74.60;;;;;;5042286;28;20036;-66
2021/12/22 07:17:44;;;;;;;26.27;14.77;;;-0.80;74.60;;;;;;5037895;28;20035;-66
2021/12/22 07:20:10;;;;;;;25.38;14.23;;;-0.90;74.70;;;;;;5042024;28;20078;-66
2021/12/22 07:22:36;;;;;;;27.50;15.82;;;-0.90;74.90;;;;;;5041953;28;20051;-66
2021/12/22 07:25:04;;;;;;;26.02;15.13;;;-1.00;74.70;;;;;;5046962;28;20493;-67
2021/12/22 07:27:30;;;;;;;31.50;15.48;;;-1.00;74.80;;;;;;5040960;28;20436;-66
2021/12/22 07:29:56;;;;;;;26.92;15.32;;;-1.00;74.80;;;;;;5040169;28;20033;-66
2021/12/22 07:32:22;;;;;;;27.17;14.30;;;-1.10;75.00;;;;;;5042135;28;20415;-64
2021/12/22 07:35:04;;;;;;;25.25;14.55;;;-1.10;75.00;;;;;;5045638;28;20569;-67
2021/12/22 07:37:39;;;;;;;25.15;15.20;;;-1.20;75.10;;;;;;5039203;28;20748;-65
2021/12/22 07:40:09;;;;;;;27.75;16.20;;;-1.20;75.10;;;;;;5042158;28;20051;-66
2021/12/22 07:42:35;;;;;;;29.83;16.25;;;-1.30;75.20;;;;;;5039498;28;20232;-66
2021/12/22 07:45:01;;;;;;;27.23;15.57;;;-1.30;75.20;;;;;;5040366;28;20040;-66
2021/12/22 07:47:27;;;;;;;27.17;15.30;;;-1.30;75.30;;;;;;5036877;28;20036;-65
2021/12/22 07:49:52;;;;;;;30.75;15.93;;;-1.30;75.30;;;;;;5044043;28;20403;-66
2021/12/22 07:52:18;;;;;;;28.55;15.10;;;-1.40;75.40;;;;;;5040578;28;20768;-66
2021/12/22 07:54:44;;;;;;;27.63;16.15;;;-1.40;75.50;;;;;;5039394;28;20044;-66
2021/12/22 07:57:10;;;;;;;27.67;15.50;;;-1.40;75.70;;;;;;5041765;28;20082;-65
2021/12/22 07:59:35;;;;;;;29.38;16.13;;;-1.50;75.80;;;;;;5041349;28;20033;-67
2021/12/22 08:02:01;;;;;;;27.27;14.93;;;-1.50;76.00;;;;;;5040507;28;20440;-66
2021/12/22 08:04:27;;;;;;;26.75;15.20;;;-1.50;76.20;;;;;;5039593;28;20040;-66
2021/12/22 08:06:53;;;;;;;36.80;17.58;;;-1.50;76.40;;;;;;5043386;28;20043;-67
2021/12/22 08:09:18;;;;;;;41.33;20.83;;;-1.50;76.60;;;;;;5038108;28;20035;-63
2021/12/22 08:11:44;;;;;;;43.00;21.95;;;-1.50;76.60;;;;;;5043163;28;20025;-67
2021/12/22 08:14:09;;;;;;;47.85;23.02;;;-1.40;76.70;;;;;;5039604;28;20664;-64
2021/12/22 08:16:35;;;;;;;50.50;26.02;;;-1.40;76.70;;;;;;5042687;28;20032;-64
2021/12/22 08:19:01;;;;;;;54.55;27.80;;;-1.40;76.80;;;;;;5051656;28;20490;-66
2021/12/22 08:21:26;;;;;;;52.60;28.35;;;-1.40;77.00;;;;;;5055560;28;20060;-65
2021/12/22 08:23:52;;;;;;;49.35;26.30;;;-1.40;77.10;;;;;;5057444;28;20036;-66
2021/12/22 08:26:18;;;;;;;51.15;25.50;;;-1.40;77.10;;;;;;5051664;28;20062;-66
2021/12/22 08:28:48;;;;;;;42.40;23.90;;;-1.40;77.10;;;;;;5055812;28;20036;-66
2021/12/22 08:31:14;;;;;;;50.10;23.85;;;-1.30;77.30;;;;;;5055371;28;20044;-66
2021/12/22 08:33:44;;;;;;;46.78;23.75;;;-1.30;77.40;;;;;;5057448;28;20620;-67
2021/12/22 08:38:55;;;;;;;50.33;25.48;;;-1.20;78.20;;;;;;5053398;28;20052;-64
2021/12/22 08:41:23;;;;;;;50.90;24.58;;;-1.20;77.40;;;;;;5054611;28;20036;-66
2021/12/22 08:43:50;;;;;;;48.92;26.05;;;-1.10;77.40;;;;;;5061180;28;20425;-66
2021/12/22 08:46:16;;;;;;;45.17;23.50;;;-1.10;77.40;;;;;;5054715;28;20880;-66
2021/12/22 08:48:42;;;;;;;42.25;23.13;;;-1.00;77.40;;;;;;5056520;28;20131;-66
2021/12/22 08:51:08;;;;;;;44.20;23.88;;;-1.00;77.30;;;;;;5057764;28;20029;-66
2021/12/22 08:53:34;;;;;;;45.35;23.15;;;-1.00;77.20;;;;;;5055232;28;20044;-66
2021/12/22 08:56:00;;;;;;;34.85;19.00;;;-0.90;77.20;;;;;;5056893;28;20449;-66
2021/12/22 08:58:26;;;;;;;37.10;20.38;;;-0.90;77.10;;;;;;5056759;28;20047;-66
2021/12/22 09:00:52;;;;;;;35.75;20.08;;;-0.90;77.10;;;;;;5055213;28;20033;-66
2021/12/22 09:03:17;;;;;;;31.65;17.50;;;-0.80;77.10;;;;;;5049261;28;20045;-67
2021/12/22 09:05:43;;;;;;;33.20;18.60;;;-0.80;77.10;;;;;;5054979;28;20102;-65
2021/12/22 09:08:09;;;;;;;43.17;22.02;;;-0.90;76.90;;;;;;5054516;28;20039;-66
2021/12/22 09:10:34;;;;;;;34.95;19.40;;;-0.80;77.10;;;;;;5053724;28;20033;-65
2021/12/22 09:13:00;;;;;;;30.92;16.70;;;-0.80;77.10;;;;;;5056022;28;20127;-66
2021/12/22 09:15:26;;;;;;;32.38;17.90;;;-0.80;77.10;;;;;;5054739;28;20630;-65
2021/12/22 09:17:51;;;;;;;33.85;19.13;;;-0.80;77.20;;;;;;5053107;28;20048;-65
2021/12/22 09:20:17;;;;;;;35.17;19.23;;;-0.70;77.30;;;;;;5052815;28;20044;-66
2021/12/22 09:22:43;;;;;;;30.63;17.13;;;-0.70;77.30;;;;;;5053719;28;20037;-66
2021/12/22 09:25:09;;;;;;;29.42;16.77;;;-0.60;77.30;;;;;;5055235;28;20053;-66
2021/12/22 09:27:35;;;;;;;30.92;17.58;;;-0.60;77.20;;;;;;5052164;28;20025;-65
2021/12/22 09:30:00;;;;;;;30.75;16.98;;;-0.60;77.10;;;;;;5056039;28;20040;-64
2021/12/22 09:32:26;;;;;;;28.35;16.30;;;-0.60;77.10;;;;;;5055453;28;20036;-66
2021/12/22 09:34:52;;;;;;;29.65;16.50;;;-0.50;77.10;;;;;;5059904;28;20036;-65
2021/12/22 09:37:18;;;;;;;32.78;17.58;;;-0.50;77.10;;;;;;5058085;28;20094;-66
2021/12/22 09:39:44;;;;;;;31.05;17.85;;;-0.50;77.10;;;;;;5059107;28;20381;-67
2021/12/22 09:42:11;;;;;;;29.48;17.00;;;-0.50;77.10;;;;;;5059709;28;20109;-66
2021/12/22 09:44:44;;;;;;;28.52;16.45;;;-0.50;77.10;;;;;;5058027;28;20056;-66
2021/12/22 09:47:11;;;;;;;30.02;16.50;;;-0.40;77.00;;;;;;5056687;28;20057;-66
2021/12/22 09:52:17;;;;;;;32.08;17.30;;;-0.40;76.90;;;;;;5057379;28;20068;-66
2021/12/22 09:54:45;;;;;;;33.25;18.27;;;-0.40;76.90;;;;;;5058659;28;20029;-66
2021/12/22 09:57:11;;;;;;;34.88;18.63;;;-0.30;77.10;;;;;;5058534;28;20037;-65
2021/12/22 09:59:37;;;;;;;30.30;18.17;;;-0.30;77.30;;;;;;5059359;28;20033;-67
2021/12/22 10:02:03;;;;;;;32.03;17.55;;;-0.20;77.10;;;;;;5055960;28;20029;-66
2021/12/22 10:04:29;;;;;;;35.55;19.08;;;-0.20;76.90;;;;;;5058234;28;20494;-66
2021/12/22 10:06:55;;;;;;;36.20;19.08;;;-0.20;76.80;;;;;;5056939;28;20025;-67
2021/12/22 10:09:24;;;;;;;36.38;18.30;;;-0.10;76.90;;;;;;5057219;28;20037;-66
2021/12/22 10:11:50;;;;;;;31.40;19.08;;;-0.10;76.80;;;;;;5055936;28;20051;-66
2021/12/22 10:14:27;;;;;;;33.65;18.73;;;0.00;76.90;;;;;;5056884;28;20037;-66
2021/12/22 10:16:55;;;;;;;32.58;17.42;;;0.00;76.80;;;;;;5057289;28;20037;-66
2021/12/22 10:19:24;;;;;;;33.60;18.60;;;0.10;77.00;;;;;;5055672;28;20026;-65
2021/12/22 10:21:59;;;;;;;34.60;18.30;;;0.10;77.00;;;;;;5059878;28;20029;-67
2021/12/22 10:24:39;;;;;;;31.35;17.23;;;0.20;76.80;;;;;;5058445;28;20028;-66
2021/12/22 10:27:11;;;;;;;64.53;18.73;;;0.30;76.70;;;;;;5054993;28;20091;-67
2021/12/22 10:29:37;;;;;;;32.55;17.77;;;0.30;76.70;;;;;;5055676;28;20031;-66
2021/12/22 10:32:21;;;;;;;29.45;16.90;;;0.30;76.60;;;;;;5053472;28;20056;-66
2021/12/22 10:35:01;;;;;;;35.00;17.40;;;0.40;76.30;;;;;;5057519;28;20083;-66
2021/12/22 10:37:35;;;;;;;34.33;18.33;;;0.40;76.40;;;;;;5056690;28;20531;-66
2021/12/22 10:40:19;;;;;;;40.55;17.80;;;0.50;76.40;;;;;;5056750;28;20055;-66
2021/12/22 10:42:45;;;;;;;33.67;17.97;;;0.50;76.40;;;;;;5055641;28;20124;-66
2021/12/22 10:45:15;;;;;;;36.78;17.90;;;0.50;76.30;;;;;;5053016;28;20135;-65
2021/12/22 10:50:35;;;;;;;31.30;17.60;;;0.50;75.80;;;;;;5055979;28;20039;-67
2021/12/22 10:53:01;;;;;;;31.70;17.85;;;0.60;76.00;;;;;;5059125;28;20407;-67
2021/12/22 10:55:40;;;;;;;35.88;18.65;;;0.50;75.90;;;;;;5059821;28;20029;-66
2021/12/22 10:58:17;;;;;;;33.45;18.70;;;0.50;75.60;;;;;;5060383;28;20599;-67
2021/12/22 11:00:43;;;;;;;33.03;17.90;;;0.50;75.50;;;;;;5058426;28;20410;-66
2021/12/22 11:03:16;;;;;;;33.30;18.48;;;0.50;75.70;;;;;;5059479;28;20040;-66
2021/12/22 11:05:49;;;;;;;30.55;17.75;;;0.50;75.70;;;;;;5059441;28;20120;-66
2021/12/22 11:08:33;;;;;;;31.20;18.70;;;0.50;75.70;;;;;;5058008;28;20120;-66
2021/12/22 11:11:10;;;;;;;34.53;18.48;;;0.50;75.30;;;;;;5055273;28;20419;-66
2021/12/22 11:13:35;;;;;;;67.63;19.45;;;0.50;75.70;;;;;;5060231;28;20109;-65
2021/12/22 11:16:01;;;;;;;35.72;19.00;;;0.50;75.70;;;;;;5055922;28;20574;-67
2021/12/22 11:18:28;;;;;;;33.92;18.48;;;0.50;75.60;;;;;;5052569;28;20029;-66
2021/12/22 11:21:12;;;;;;;34.10;18.67;;;0.50;75.60;;;;;;5058490;28;20032;-66
2021/12/22 11:23:39;;;;;;;35.60;19.33;;;0.50;75.20;;;;;;5051837;28;20032;-66
2021/12/22 11:26:06;;;;;;;33.25;19.20;;;0.50;75.50;;;;;;5054131;28;20036;-65
2021/12/22 11:28:34;;;;;;;33.85;18.90;;;0.50;75.50;;;;;;5056369;28;20032;-66
2021/12/22 11:31:00;;;;;;;37.70;19.92;;;0.50;75.50;;;;;;5056886;28;20438;-66
2021/12/22 11:33:27;;;;;;;34.83;19.48;;;0.50;75.60;;;;;;5056586;28;20090;-66
2021/12/22 11:35:55;;;;;;;40.97;19.63;;;0.40;75.60;;;;;;5057213;28;20411;-66
2021/12/22 11:38:22;;;;;;;35.03;19.08;;;0.50;75.90;;;;;;5056292;28;20064;-66
2021/12/22 11:40:55;;;;;;;37.88;19.92;;;0.50;75.90;;;;;;5056055;28;20037;-66
2021/12/22 11:43:21;;;;;;;35.05;19.20;;;0.50;75.90;;;;;;5058359;28;21092;-64
2021/12/22 11:45:48;;;;;;;39.42;19.83;;;0.50;75.90;;;;;;5056281;28;20032;-66
2021/12/22 11:48:16;;;;;;;45.53;18.80;;;0.50;75.90;;;;;;5055039;28;20385;-66
2021/12/22 11:50:46;;;;;;;40.75;19.30;;;0.50;76.00;;;;;;5055281;28;20432;-66
2021/12/22 11:53:12;;;;;;;36.72;19.15;;;0.60;76.00;;;;;;5057511;28;20047;-65
2021/12/22 11:55:44;;;;;;;37.17;20.05;;;0.60;75.90;;;;;;5053589;28;20060;-66
2021/12/22 11:58:12;;;;;;;53.70;19.95;;;0.70;76.00;;;;;;5057289;28;20040;-65
2021/12/22 12:00:39;;;;;;;37.42;19.85;;;0.70;75.90;;;;;;5056366;28;20037;-66
2021/12/22 12:03:36;;;;;;;32.95;19.13;;;0.70;76.00;;;;;;5056354;28;20040;-66
2021/12/22 12:06:08;;;;;;;36.67;19.70;;;0.80;75.70;;;;;;5056040;28;22450;-66
2021/12/22 12:08:41;;;;;;;38.78;19.73;;;0.90;75.80;;;;;;5057222;28;20504;-66
2021/12/22 12:11:08;;;;;;;38.10;19.10;;;0.90;75.60;;;;;;5052715;28;20052;-66
2021/12/22 12:21:54;;;;;;;35.75;19.35;;;1.00;75.10;;;;;;5058051;28;20395;-67
2021/12/22 12:24:41;;;;;;;38.45;20.83;;;0.90;75.00;;;;;;5057522;28;20071;-66
2021/12/22 12:27:28;;;;;;;37.00;19.50;;;1.00;74.90;;;;;;5056395;28;20098;-67
2021/12/22 12:29:53;;;;;;;41.35;20.83;;;1.00;74.60;;;;;;5054091;28;20112;-67
2021/12/22 12:32:40;;;;;;;49.42;20.60;;;1.00;74.80;;;;;;5054046;28;20123;-66
2021/12/22 12:35:26;;;;;;;38.25;19.88;;;1.00;74.30;;;;;;5054195;28;20037;-66
2021/12/22 12:38:14;;;;;;;33.38;18.33;;;1.00;74.60;;;;;;5054917;28;20041;-66
2021/12/22 12:40:57;;;;;;;47.35;20.33;;;1.00;74.70;;;;;;5056138;28;20124;-66
2021/12/22 12:43:45;;;;;;;38.03;19.30;;;1.00;74.60;;;;;;5053974;28;20032;-66
2021/12/22 12:46:23;;;;;;;37.97;19.67;;;1.00;74.10;;;;;;5051895;28;20526;-65
2021/12/22 12:48:52;;;;;;;35.97;19.05;;;1.00;74.10;;;;;;5055578;28;20078;-66
2021/12/22 12:51:19;;;;;;;40.13;19.75;;;1.00;74.40;;;;;;5055560;28;20032;-67
2021/12/22 12:53:51;;;;;;;40.88;20.05;;;1.00;74.70;;;;;;5055392;28;20043;-67
2021/12/22 12:56:18;;;;;;;43.88;20.25;;;1.00;74.80;;;;;;5053174;28;20111;-67
2021/12/22 12:58:57;;;;;;;39.97;20.38;;;1.10;75.20;;;;;;5053619;28;20040;-66
2021/12/22 13:01:47;;;;;;;39.40;19.27;;;1.00;74.80;;;;;;5055318;28;20070;-66